Time;durP1;ratioP1;P1;durP2;ratioP2;P2;SDS_P1;SDS_P2;PMS_P1;PMS_P2;Temp;Humidity;BMP_temperature;BMP_pressure;BME280_temperature;BME280_humidity;BME280_pressure;Samples;Min_cycle;Max_cycle;Signal;HPM_P1;HPM_P2
2023/06/09 00:01:17;;;;;;;;;;;21.80;57.60;;;;;;10245575;28;818;-71
2023/06/09 00:06:12;;;;;;;;;;;21.80;57.60;;;;;;10245768;28;770;-70
2023/06/09 00:11:10;;;;;;;;;;;21.80;58.10;;;;;;10246166;28;1971;-70
2023/06/09 00:16:05;;;;;;;;;;;21.80;57.50;;;;;;10245571;28;871;-71
2023/06/09 00:21:01;;;;;;;;;;;21.90;57.60;;;;;;10245200;28;1594;-71
2023/06/09 00:25:56;;;;;;;;;;;21.80;57.60;;;;;;10245084;28;952;-70
2023/06/09 00:30:52;;;;;;;;;;;21.80;57.50;;;;;;10245436;28;1969;-71
2023/06/09 00:35:49;;;;;;;;;;;21.80;57.50;;;;;;10244767;28;853;-71
2023/06/09 00:40:44;;;;;;;;;;;21.80;57.50;;;;;;10245274;28;862;-71
2023/06/09 00:45:40;;;;;;;;;;;21.80;57.50;;;;;;10244794;28;1302;-71
2023/06/09 00:50:35;;;;;;;;;;;21.80;57.50;;;;;;10244871;28;1968;-72
2023/06/09 00:55:32;;;;;;;;;;;21.80;57.40;;;;;;10245040;28;840;-71
2023/06/09 01:00:28;;;;;;;;;;;21.80;57.40;;;;;;10244040;28;806;-70
2023/06/09 01:05:23;;;;;;;;;;;21.80;57.50;;;;;;10244111;28;821;-71
2023/06/09 01:10:19;;;;;;;;;;;21.80;57.40;;;;;;10244456;28;1906;-71
2023/06/09 01:15:17;;;;;;;;;;;21.80;57.40;;;;;;10243860;28;810;-71
2023/06/09 01:20:12;;;;;;;;;;;21.80;57.40;;;;;;10244524;28;934;-71
2023/06/09 01:25:08;;;;;;;;;;;21.80;57.40;;;;;;10244915;28;861;-71
2023/06/09 01:30:03;;;;;;;;;;;21.80;57.40;;;;;;10244109;28;1910;-71
2023/06/09 01:34:58;;;;;;;;;;;21.80;57.40;;;;;;10243612;28;913;-71
2023/06/09 01:39:54;;;;;;;;;;;21.80;57.30;;;;;;10243525;28;764;-71
2023/06/09 01:44:49;;;;;;;;;;;21.80;57.30;;;;;;10243116;28;1228;-71
2023/06/09 01:49:44;;;;;;;;;;;21.80;57.30;;;;;;10243035;28;1914;-71
2023/06/09 01:54:40;;;;;;;;;;;21.80;57.40;;;;;;10243113;28;857;-71
2023/06/09 01:59:35;;;;;;;;;;;21.80;57.20;;;;;;10243722;28;779;-71
2023/06/09 02:04:31;;;;;;;;;;;21.80;57.30;;;;;;10243510;28;859;-70
2023/06/09 02:09:26;;;;;;;;;;;21.80;57.30;;;;;;10242869;28;1966;-71
2023/06/09 02:14:22;;;;;;;;;;;21.80;57.30;;;;;;10247418;28;956;-71
2023/06/09 02:19:18;;;;;;;;;;;21.80;57.30;;;;;;10249855;28;902;-71
2023/06/09 02:24:15;;;;;;;;;;;21.80;57.30;;;;;;10249757;28;752;-71
2023/06/09 02:29:11;;;;;;;;;;;21.80;57.30;;;;;;10248841;28;1968;-71
2023/06/09 02:34:06;;;;;;;;;;;21.80;57.30;;;;;;10250068;28;867;-71
2023/06/09 02:39:02;;;;;;;;;;;21.70;57.20;;;;;;10249138;28;935;-71
2023/06/09 02:43:58;;;;;;;;;;;21.70;57.20;;;;;;10248956;28;782;-71
2023/06/09 02:48:53;;;;;;;;;;;21.80;57.30;;;;;;10248596;28;1980;-71
2023/06/09 02:53:48;;;;;;;;;;;21.70;57.20;;;;;;10249170;28;874;-71
2023/06/09 02:58:44;;;;;;;;;;;21.70;57.20;;;;;;10249021;28;747;-71
2023/06/09 03:03:39;;;;;;;;;;;21.70;57.20;;;;;;10248234;28;851;-72
2023/06/09 03:08:35;;;;;;;;;;;21.70;57.20;;;;;;10248140;28;1910;-71
2023/06/09 03:13:30;;;;;;;;;;;21.70;57.20;;;;;;10247837;28;883;-71
2023/06/09 03:18:26;;;;;;;;;;;21.70;57.20;;;;;;10248150;28;973;-71
2023/06/09 03:23:21;;;;;;;;;;;21.70;57.20;;;;;;10246796;28;997;-70
2023/06/09 03:28:16;;;;;;;;;;;21.70;57.20;;;;;;10246662;28;770;-71
2023/06/09 03:33:12;;;;;;;;;;;21.70;57.20;;;;;;10246437;28;1902;-70
2023/06/09 03:38:07;;;;;;;;;;;21.70;57.20;;;;;;10246835;28;785;-70
2023/06/09 03:43:03;;;;;;;;;;;21.70;57.10;;;;;;10247356;28;818;-70
2023/06/09 03:47:58;;;;;;;;;;;21.70;57.10;;;;;;10246152;28;1156;-72
2023/06/09 03:52:53;;;;;;;;;;;21.70;57.10;;;;;;10246383;28;1973;-70
2023/06/09 03:57:49;;;;;;;;;;;21.70;57.20;;;;;;10246121;28;825;-71
2023/06/09 04:02:44;;;;;;;;;;;21.70;57.10;;;;;;10245909;28;1000;-71
2023/06/09 04:07:40;;;;;;;;;;;21.70;57.10;;;;;;10245761;28;806;-72
2023/06/09 04:12:35;;;;;;;;;;;21.70;57.10;;;;;;10246048;28;1902;-69
2023/06/09 04:17:32;;;;;;;;;;;21.70;57.20;;;;;;10246259;28;762;-71
2023/06/09 04:22:27;;;;;;;;;;;21.70;57.20;;;;;;10245805;28;785;-71
2023/06/09 04:27:25;;;;;;;;;;;21.70;57.30;;;;;;10244468;28;888;-71
2023/06/09 04:32:21;;;;;;;;;;;21.60;57.10;;;;;;10245427;28;1972;-71
2023/06/09 04:37:16;;;;;;;;;;;21.60;57.20;;;;;;10244418;28;881;-71
2023/06/09 04:42:12;;;;;;;;;;;21.60;57.20;;;;;;10244618;28;782;-71
2023/06/09 04:47:10;;;;;;;;;;;21.60;57.20;;;;;;10244294;28;1379;-69
2023/06/09 04:52:07;;;;;;;;;;;21.70;57.40;;;;;;10244849;28;1965;-70
2023/06/09 04:57:03;;;;;;;;;;;21.60;57.30;;;;;;10244260;28;863;-75
2023/06/09 05:01:58;;;;;;;;;;;21.60;57.30;;;;;;10244738;28;845;-71
2023/06/09 05:06:54;;;;;;;;;;;21.60;57.30;;;;;;10244625;28;938;-71
2023/06/09 05:11:49;;;;;;;;;;;21.60;57.30;;;;;;10242545;28;1898;-71
2023/06/09 05:16:45;;;;;;;;;;;21.60;57.30;;;;;;10243030;28;1254;-71
2023/06/09 05:21:45;;;;;;;;;;;21.60;57.30;;;;;;10243818;28;812;-71
2023/06/09 05:26:40;;;;;;;;;;;21.60;57.40;;;;;;10243633;28;1605;-71
2023/06/09 05:31:36;;;;;;;;;;;21.60;57.40;;;;;;10243566;28;1953;-71
2023/06/09 05:36:31;;;;;;;;;;;21.60;57.40;;;;;;10243494;28;850;-71
2023/06/09 05:41:26;;;;;;;;;;;21.60;57.40;;;;;;10243537;28;785;-71
2023/06/09 05:46:22;;;;;;;;;;;21.60;57.50;;;;;;10243389;28;1129;-72
2023/06/09 05:51:17;;;;;;;;;;;21.50;57.40;;;;;;10249516;28;1925;-70
2023/06/09 05:56:15;;;;;;;;;;;21.60;57.50;;;;;;10250841;28;890;-69
2023/06/09 06:01:10;;;;;;;;;;;21.60;57.50;;;;;;10251575;28;864;-71
2023/06/09 06:06:05;;;;;;;;;;;21.50;57.50;;;;;;10250429;28;932;-71
2023/06/09 06:11:01;;;;;;;;;;;21.60;57.60;;;;;;10250476;28;1957;-71
2023/06/09 06:15:56;;;;;;;;;;;21.50;57.50;;;;;;10249804;28;947;-71
2023/06/09 06:20:52;;;;;;;;;;;21.50;57.60;;;;;;10250510;28;798;-68
2023/06/09 06:25:47;;;;;;;;;;;21.60;57.60;;;;;;10249687;28;773;-68
2023/06/09 06:30:42;;;;;;;;;;;21.50;57.70;;;;;;10249624;28;1918;-70
2023/06/09 06:35:38;;;;;;;;;;;21.60;57.90;;;;;;10249281;28;790;-71
2023/06/09 06:40:33;;;;;;;;;;;21.60;57.80;;;;;;10249807;28;889;-71
2023/06/09 06:45:28;;;;;;;;;;;21.50;57.80;;;;;;10249294;28;1227;-70
2023/06/09 06:50:24;;;;;;;;;;;21.50;57.90;;;;;;10248804;28;1976;-70
2023/06/09 06:55:20;;;;;;;;;;;21.50;57.90;;;;;;10248524;28;955;-73
2023/06/09 07:00:15;;;;;;;;;;;21.50;57.90;;;;;;10247496;28;1241;-73
2023/06/09 07:05:10;;;;;;;;;;;21.50;57.70;;;;;;10248216;28;891;-74
2023/06/09 07:10:08;;;;;;;;;;;21.50;57.70;;;;;;10248934;28;1962;-70
2023/06/09 07:15:03;;;;;;;;;;;21.50;57.80;;;;;;10247901;28;831;-70
2023/06/09 07:19:59;;;;;;;;;;;21.50;57.90;;;;;;10247186;28;908;-70
2023/06/09 07:24:56;;;;;;;;;;;21.50;57.90;;;;;;10246958;28;845;-69
2023/06/09 07:29:51;;;;;;;;;;;21.50;57.90;;;;;;10247118;28;1906;-70
2023/06/09 07:34:46;;;;;;;;;;;21.50;58.00;;;;;;10247387;28;859;-70
2023/06/09 07:39:42;;;;;;;;;;;21.60;58.20;;;;;;10247491;28;858;-70
2023/06/09 07:44:37;;;;;;;;;;;21.50;58.10;;;;;;10246827;28;776;-71
2023/06/09 07:49:33;;;;;;;;;;;21.50;58.20;;;;;;10245647;28;1914;-71
2023/06/09 07:54:28;;;;;;;;;;;21.50;58.20;;;;;;10247074;28;1028;-69
2023/06/09 07:59:24;;;;;;;;;;;21.50;58.30;;;;;;10247319;28;875;-70
2023/06/09 08:04:19;;;;;;;;;;;21.50;58.30;;;;;;10245960;28;899;-70
2023/06/09 08:09:15;;;;;;;;;;;21.50;58.30;;;;;;10245717;28;1882;-71
2023/06/09 08:14:10;;;;;;;;;;;21.50;58.40;;;;;;10244988;28;755;-74
2023/06/09 08:19:05;;;;;;;;;;;21.50;58.50;;;;;;10245320;28;954;-74
2023/06/09 08:24:01;;;;;;;;;;;21.50;58.40;;;;;;10245241;28;782;-74
2023/06/09 08:28:56;;;;;;;;;;;21.50;58.40;;;;;;10245761;28;1902;-74
2023/06/09 08:33:53;;;;;;;;;;;21.50;58.30;;;;;;10244843;28;879;-74
2023/06/09 08:38:48;;;;;;;;;;;21.50;58.20;;;;;;10244695;28;790;-74
2023/06/09 08:43:44;;;;;;;;;;;21.50;58.10;;;;;;10244027;28;1390;-74
2023/06/09 08:48:39;;;;;;;;;;;21.50;58.00;;;;;;10244032;28;1906;-75
2023/06/09 08:53:34;;;;;;;;;;;21.50;57.90;;;;;;10245350;28;841;-74
2023/06/09 08:58:30;;;;;;;;;;;21.50;57.90;;;;;;10244101;28;877;-89
2023/06/09 09:03:25;;;;;;;;;;;21.50;57.80;;;;;;10244185;28;829;-89
2023/06/09 09:08:21;;;;;;;;;;;21.50;57.80;;;;;;10243529;28;822;-87
2023/06/09 09:13:17;;;;;;;;;;;21.60;57.80;;;;;;10243938;28;1968;-90
2023/06/09 09:18:13;;;;;;;;;;;21.60;57.80;;;;;;10244340;28;975;-89
2023/06/09 09:23:08;;;;;;;;;;;21.50;57.70;;;;;;10248249;28;860;-74
2023/06/09 09:28:03;;;;;;;;;;;21.50;57.60;;;;;;10234802;28;916;-77
2023/06/09 09:32:59;;;;;;;;;;;21.50;57.50;;;;;;10252284;28;1894;-71
2023/06/09 09:37:55;;;;;;;;;;;21.50;57.60;;;;;;10251058;28;888;-71
2023/06/09 09:42:50;;;;;;;;;;;21.50;57.90;;;;;;10251043;28;975;-71
2023/06/09 09:47:45;;;;;;;;;;;21.50;58.00;;;;;;10251270;28;1141;-70
2023/06/09 09:52:42;;;;;;;;;;;21.40;58.10;;;;;;10251057;28;1898;-70
2023/06/09 09:57:37;;;;;;;;;;;21.40;58.30;;;;;;10251371;28;817;-67
2023/06/09 10:02:32;;;;;;;;;;;21.40;58.20;;;;;;10250603;28;940;-70
2023/06/09 10:07:28;;;;;;;;;;;21.40;58.20;;;;;;10251059;28;867;-70
2023/06/09 10:12:23;;;;;;;;;;;21.40;58.10;;;;;;10250887;28;1955;-70
2023/06/09 10:17:21;;;;;;;;;;;21.40;58.20;;;;;;10250631;28;908;-70
2023/06/09 10:22:17;;;;;;;;;;;21.40;58.20;;;;;;10250601;28;869;-70
2023/06/09 10:27:12;;;;;;;;;;;21.40;58.30;;;;;;10250275;28;904;-70
2023/06/09 10:32:07;;;;;;;;;;;21.40;58.40;;;;;;10249454;28;1902;-70
2023/06/09 10:37:04;;;;;;;;;;;21.40;58.40;;;;;;10248671;28;909;-70
2023/06/09 10:41:59;;;;;;;;;;;21.30;58.30;;;;;;10249994;28;907;-70
2023/06/09 10:46:55;;;;;;;;;;;21.30;58.40;;;;;;10248758;28;1360;-70
2023/06/09 10:51:50;;;;;;;;;;;21.30;58.30;;;;;;10248046;28;1972;-70
2023/06/09 10:56:46;;;;;;;;;;;21.30;58.40;;;;;;10248651;28;805;-70
2023/06/09 11:01:42;;;;;;;;;;;21.30;58.40;;;;;;10248332;28;836;-70
2023/06/09 11:06:37;;;;;;;;;;;21.30;58.40;;;;;;10248844;28;857;-70
2023/06/09 11:11:32;;;;;;;;;;;21.30;58.40;;;;;;10247470;28;1902;-70
2023/06/09 11:16:28;;;;;;;;;;;21.30;58.40;;;;;;10248381;28;785;-70
2023/06/09 11:21:23;;;;;;;;;;;21.40;58.40;;;;;;10248232;28;837;-69
2023/06/09 11:26:19;;;;;;;;;;;21.40;58.40;;;;;;10247452;28;794;-69
2023/06/09 11:31:14;;;;;;;;;;;21.40;58.30;;;;;;10248042;28;1959;-70
2023/06/09 11:36:12;;;;;;;;;;;21.40;58.30;;;;;;10247011;28;847;-70
2023/06/09 11:41:07;;;;;;;;;;;21.40;58.30;;;;;;10246483;28;773;-71
2023/06/09 11:46:03;;;;;;;;;;;21.40;58.30;;;;;;10245913;28;1259;-70
2023/06/09 11:50:58;;;;;;;;;;;21.40;58.30;;;;;;10246389;28;1906;-71
2023/06/09 11:55:54;;;;;;;;;;;21.40;58.40;;;;;;10213173;28;1066;-71
2023/06/09 12:00:49;;;;;;;;;;;21.50;58.40;;;;;;10206435;28;806;-70
2023/06/09 12:05:45;;;;;;;;;;;21.50;58.40;;;;;;10205717;28;795;-73
2023/06/09 12:10:46;;;;;;;;;;;21.50;58.50;;;;;;10484491;27;1292739;-67
2023/06/09 12:15:45;;;;;;;;;;;21.50;58.50;;;;;;10528117;27;938;-67
2023/06/09 12:20:42;;;;;;;;;;;21.50;58.40;;;;;;10492125;27;970;-67
2023/06/09 12:25:38;;;;;;;;;;;21.50;58.20;;;;;;10486246;27;851;-67
2023/06/09 12:30:33;;;;;;;;;;;21.60;58.00;;;;;;10485751;27;1909;-73
2023/06/09 12:35:29;;;;;;;;;;;21.60;57.90;;;;;;10485581;27;854;-73
2023/06/09 12:40:24;;;;;;;;;;;21.50;57.80;;;;;;10486073;27;798;-73
2023/06/09 12:45:22;;;;;;;;;;;21.50;57.90;;;;;;10485088;27;870;-69
2023/06/09 12:50:17;;;;;;;;;;;21.50;57.90;;;;;;10484384;27;1889;-70
2023/06/09 12:55:13;;;;;;;;;;;21.50;58.00;;;;;;10466241;27;1003;-70
2023/06/09 13:00:08;;;;;;;;;;;21.50;58.00;;;;;;10484315;27;762;-70
2023/06/09 13:05:04;;;;;;;;;;;21.50;58.00;;;;;;10484096;27;1016;-70
2023/06/09 13:10:00;;;;;;;;;;;21.60;58.10;;;;;;10483684;27;1894;-70
2023/06/09 13:14:55;;;;;;;;;;;21.50;58.00;;;;;;10483794;27;885;-70
2023/06/09 13:19:51;;;;;;;;;;;21.50;58.00;;;;;;10469316;27;973;-70
2023/06/09 13:24:46;;;;;;;;;;;21.50;58.10;;;;;;10455364;27;810;-70
2023/06/09 13:29:42;;;;;;;;;;;21.60;58.20;;;;;;10455916;27;1913;-70
2023/06/09 13:34:37;;;;;;;;;;;21.60;58.10;;;;;;10455769;27;800;-69
2023/06/09 13:39:32;;;;;;;;;;;21.60;58.10;;;;;;10455514;27;945;-70
2023/06/09 13:44:28;;;;;;;;;;;21.60;57.90;;;;;;10455295;27;815;-71
2023/06/09 13:49:23;;;;;;;;;;;21.60;58.00;;;;;;10454956;27;1961;-69
2023/06/09 13:54:18;;;;;;;;;;;21.60;58.20;;;;;;10454971;27;957;-70
2023/06/09 13:59:14;;;;;;;;;;;21.60;58.10;;;;;;10452046;27;977;-72
2023/06/09 14:04:10;;;;;;;;;;;21.60;58.20;;;;;;10452180;27;977;-70
2023/06/09 14:09:07;;;;;;;;;;;21.60;58.20;;;;;;10453602;27;1913;-68
2023/06/09 14:14:02;;;;;;;;;;;21.70;58.30;;;;;;10453328;27;878;-70
2023/06/09 14:18:58;;;;;;;;;;;21.70;58.40;;;;;;10453914;27;782;-70
2023/06/09 14:23:53;;;;;;;;;;;21.70;58.50;;;;;;10453849;27;1630;-76
2023/06/09 14:28:48;;;;;;;;;;;21.70;58.50;;;;;;10452775;27;1984;-76
2023/06/09 14:33:44;;;;;;;;;;;21.70;58.50;;;;;;10451653;27;871;-71
2023/06/09 14:38:39;;;;;;;;;;;21.70;58.50;;;;;;10452640;27;866;-75
2023/06/09 14:43:35;;;;;;;;;;;21.80;58.50;;;;;;10452318;27;808;-70
2023/06/09 14:48:30;;;;;;;;;;;21.80;58.40;;;;;;10452904;27;1957;-69
2023/06/09 14:53:25;;;;;;;;;;;21.80;58.50;;;;;;10451574;27;994;-70
2023/06/09 14:58:21;;;;;;;;;;;21.80;58.40;;;;;;10451978;27;737;-70
2023/06/09 15:03:16;;;;;;;;;;;21.80;58.50;;;;;;10452024;27;777;-70
2023/06/09 15:08:11;;;;;;;;;;;21.80;58.50;;;;;;10451585;27;1902;-70
2023/06/09 15:13:07;;;;;;;;;;;21.80;58.60;;;;;;10452202;27;804;-70
2023/06/09 15:18:03;;;;;;;;;;;21.80;59.10;;;;;;10451074;27;870;-70
2023/06/09 15:22:59;;;;;;;;;;;21.80;58.40;;;;;;10450936;27;966;-70
2023/06/09 15:27:56;;;;;;;;;;;21.80;58.40;;;;;;10450170;27;1910;-70
2023/06/09 15:32:52;;;;;;;;;;;21.80;58.40;;;;;;10450803;27;861;-70
2023/06/09 15:37:47;;;;;;;;;;;21.80;58.30;;;;;;10451416;27;863;-70
2023/06/09 15:42:42;;;;;;;;;;;21.80;58.20;;;;;;10449939;27;841;-70
2023/06/09 15:47:38;;;;;;;;;;;21.90;58.20;;;;;;10432156;27;1961;-70
2023/06/09 15:52:33;;;;;;;;;;;21.90;58.20;;;;;;10450114;27;940;-70
2023/06/09 15:57:28;;;;;;;;;;;21.90;58.00;;;;;;10449283;27;1190;-70
2023/06/09 16:02:24;;;;;;;;;;;21.90;58.00;;;;;;10449252;27;939;-70
2023/06/09 16:07:19;;;;;;;;;;;21.90;58.00;;;;;;10450388;27;1961;-68
2023/06/09 16:12:15;;;;;;;;;;;21.90;57.90;;;;;;10449700;28;883;-77
2023/06/09 16:17:10;;;;;;;;;;;21.90;57.70;;;;;;10449927;28;874;-78
2023/06/09 16:22:05;;;;;;;;;;;21.90;57.80;;;;;;10449571;28;766;-78
2023/06/09 16:27:01;;;;;;;;;;;21.90;57.80;;;;;;10449941;28;1973;-78
2023/06/09 16:31:56;;;;;;;;;;;22.00;57.80;;;;;;10448715;28;858;-78
2023/06/09 16:36:51;;;;;;;;;;;22.00;57.70;;;;;;10449616;28;1055;-78
2023/06/09 16:41:47;;;;;;;;;;;22.00;57.70;;;;;;10449702;28;834;-77
2023/06/09 16:46:42;;;;;;;;;;;22.00;57.50;;;;;;10448914;28;1905;-78
2023/06/09 16:51:38;;;;;;;;;;;22.00;57.50;;;;;;10449658;28;873;-77
2023/06/09 16:56:33;;;;;;;;;;;22.00;57.50;;;;;;10455754;27;852;-77
2023/06/09 17:01:28;;;;;;;;;;;22.00;57.40;;;;;;10456626;27;900;-77
2023/06/09 17:06:25;;;;;;;;;;;22.00;57.40;;;;;;10456148;27;1972;-81
2023/06/09 17:11:20;;;;;;;;;;;22.10;57.50;;;;;;10456764;27;921;-75
2023/06/09 17:16:16;;;;;;;;;;;22.10;57.50;;;;;;10456082;27;854;-75
2023/06/09 17:21:11;;;;;;;;;;;22.10;57.40;;;;;;10455883;27;903;-75
2023/06/09 17:26:07;;;;;;;;;;;22.10;57.40;;;;;;10456257;27;1918;-78
2023/06/09 17:31:02;;;;;;;;;;;22.10;57.40;;;;;;10455838;27;868;-78
2023/06/09 17:35:57;;;;;;;;;;;22.10;57.50;;;;;;10455186;27;907;-77
2023/06/09 17:40:53;;;;;;;;;;;22.10;57.30;;;;;;10454409;27;1006;-78
2023/06/09 17:45:48;;;;;;;;;;;22.10;57.40;;;;;;10454668;27;801;-78
2023/06/09 17:50:43;;;;;;;;;;;22.10;57.40;;;;;;10454697;27;1955;-77
2023/06/09 17:55:39;;;;;;;;;;;22.10;57.40;;;;;;10453888;27;868;-77
2023/06/09 18:00:34;;;;;;;;;;;22.10;57.40;;;;;;10454881;27;810;-74
2023/06/09 18:05:30;;;;;;;;;;;22.10;57.40;;;;;;10455471;27;848;-77
2023/06/09 18:10:25;;;;;;;;;;;22.20;57.30;;;;;;10453011;27;1898;-77
2023/06/09 18:15:21;;;;;;;;;;;22.20;57.30;;;;;;10454345;27;888;-77
2023/06/09 18:20:16;;;;;;;;;;;22.20;57.30;;;;;;10454009;27;988;-78
2023/06/09 18:25:11;;;;;;;;;;;22.20;57.30;;;;;;10454030;27;916;-78
2023/06/09 18:30:08;;;;;;;;;;;22.20;57.30;;;;;;10453700;27;1890;-76
2023/06/09 18:35:03;;;;;;;;;;;22.20;57.30;;;;;;10452869;27;840;-69
2023/06/09 18:39:58;;;;;;;;;;;22.20;56.70;;;;;;10452761;27;746;-70
2023/06/09 18:44:54;;;;;;;;;;;22.20;57.20;;;;;;10452948;27;859;-70
2023/06/09 18:49:49;;;;;;;;;;;22.20;57.30;;;;;;10451875;27;1897;-70
2023/06/09 18:54:45;;;;;;;;;;;22.20;57.30;;;;;;10452064;27;870;-70
2023/06/09 18:59:40;;;;;;;;;;;22.20;57.30;;;;;;10451886;27;942;-70
2023/06/09 19:04:36;;;;;;;;;;;22.20;57.20;;;;;;10451673;27;871;-70
2023/06/09 19:09:31;;;;;;;;;;;22.30;57.30;;;;;;10451731;27;1953;-66
2023/06/09 19:14:26;;;;;;;;;;;22.30;57.20;;;;;;10450689;27;1191;-67
2023/06/09 19:19:22;;;;;;;;;;;22.30;57.30;;;;;;10451299;27;851;-70
2023/06/09 19:24:17;;;;;;;;;;;22.30;57.40;;;;;;10451633;27;805;-70
2023/06/09 19:29:12;;;;;;;;;;;22.30;57.50;;;;;;10451235;27;1979;-70
2023/06/09 19:34:08;;;;;;;;;;;22.30;57.50;;;;;;10450606;27;769;-70
2023/06/09 19:39:03;;;;;;;;;;;22.20;57.40;;;;;;10449938;27;1030;-69
2023/06/09 19:43:59;;;;;;;;;;;22.30;57.50;;;;;;10450458;27;943;-69
2023/06/09 19:48:54;;;;;;;;;;;22.30;57.60;;;;;;10450686;27;1909;-69
2023/06/09 19:53:49;;;;;;;;;;;22.30;57.70;;;;;;10450131;27;797;-69
2023/06/09 19:58:45;;;;;;;;;;;22.20;58.30;;;;;;10449904;27;797;-69
2023/06/09 20:03:40;;;;;;;;;;;22.20;57.60;;;;;;10450491;27;793;-69
2023/06/09 20:08:36;;;;;;;;;;;22.20;57.60;;;;;;10449174;27;1905;-71
2023/06/09 20:13:31;;;;;;;;;;;22.20;57.40;;;;;;10450320;28;815;-71
2023/06/09 20:18:27;;;;;;;;;;;22.30;57.60;;;;;;10449800;28;793;-71
2023/06/09 20:23:29;;;;;;;;;;;22.30;57.60;;;;;;10450113;28;819;-70
2023/06/09 20:28:25;;;;;;;;;;;22.30;57.60;;;;;;10449875;27;1917;-71
2023/06/09 20:33:20;;;;;;;;;;;22.30;57.60;;;;;;10458309;27;871;-70
2023/06/09 20:38:15;;;;;;;;;;;22.30;57.70;;;;;;10457665;27;876;-70
2023/06/09 20:43:17;;;;;;;;;;;22.30;57.70;;;;;;10457412;27;865;-71
2023/06/09 20:48:15;;;;;;;;;;;22.30;57.60;;;;;;10457795;27;1960;-70
2023/06/09 20:53:13;;;;;;;;;;;22.30;57.60;;;;;;10457587;27;1121;-70
2023/06/09 20:58:09;;;;;;;;;;;22.30;57.60;;;;;;10456383;27;949;-70
2023/06/09 21:03:05;;;;;;;;;;;22.30;57.50;;;;;;10456577;27;773;-70
2023/06/09 21:08:01;;;;;;;;;;;22.30;57.50;;;;;;10456397;27;1905;-70
2023/06/09 21:12:56;;;;;;;;;;;22.30;57.50;;;;;;10456842;27;843;-70
2023/06/09 21:17:51;;;;;;;;;;;22.30;57.50;;;;;;10456021;27;871;-70
2023/06/09 21:22:47;;;;;;;;;;;22.30;57.50;;;;;;10456013;27;970;-70
2023/06/09 21:27:42;;;;;;;;;;;22.30;57.40;;;;;;10455643;27;1906;-70
2023/06/09 21:32:37;;;;;;;;;;;22.30;57.40;;;;;;10455711;27;797;-70
2023/06/09 21:37:33;;;;;;;;;;;22.30;57.40;;;;;;10455272;27;864;-71
2023/06/09 21:42:28;;;;;;;;;;;22.30;57.40;;;;;;10454646;27;872;-70
2023/06/09 21:47:24;;;;;;;;;;;22.30;57.40;;;;;;10455436;27;1961;-70
2023/06/09 21:52:19;;;;;;;;;;;22.30;57.30;;;;;;10454653;27;874;-70
2023/06/09 21:57:15;;;;;;;;;;;22.40;57.40;;;;;;10454638;27;764;-70
2023/06/09 22:02:10;;;;;;;;;;;22.40;57.30;;;;;;10454403;27;928;-70
2023/06/09 22:07:05;;;;;;;;;;;22.30;57.30;;;;;;10455150;27;1905;-70
2023/06/09 22:12:01;;;;;;;;;;;22.40;57.30;;;;;;10454866;27;781;-70
2023/06/09 22:16:58;;;;;;;;;;;22.40;57.30;;;;;;10453202;27;1040;-70
2023/06/09 22:21:54;;;;;;;;;;;22.40;57.30;;;;;;10453630;27;866;-70
2023/06/09 22:26:49;;;;;;;;;;;22.40;57.30;;;;;;10454582;27;1973;-70
2023/06/09 22:31:45;;;;;;;;;;;22.40;57.30;;;;;;10453329;27;776;-70
2023/06/09 22:36:40;;;;;;;;;;;22.40;57.30;;;;;;10453604;27;1061;-70
2023/06/09 22:41:35;;;;;;;;;;;22.40;57.30;;;;;;10453379;27;792;-70
2023/06/09 22:46:31;;;;;;;;;;;22.40;57.30;;;;;;10452422;27;1964;-70
2023/06/09 22:51:26;;;;;;;;;;;22.40;57.20;;;;;;10452090;27;865;-70
2023/06/09 22:56:22;;;;;;;;;;;22.40;57.30;;;;;;10452200;27;808;-70
2023/06/09 23:01:17;;;;;;;;;;;22.40;57.80;;;;;;10452205;27;788;-70
2023/06/09 23:06:14;;;;;;;;;;;22.40;57.20;;;;;;10451443;27;1906;-70
2023/06/09 23:11:10;;;;;;;;;;;22.40;57.30;;;;;;10451537;27;960;-70
2023/06/09 23:16:06;;;;;;;;;;;22.40;57.30;;;;;;10451405;27;864;-71
2023/06/09 23:21:01;;;;;;;;;;;22.40;57.30;;;;;;10451509;27;919;-71
2023/06/09 23:25:57;;;;;;;;;;;22.40;57.40;;;;;;10451978;27;794;-71
2023/06/09 23:30:54;;;;;;;;;;;22.40;57.40;;;;;;10451409;27;1898;-70
2023/06/09 23:35:49;;;;;;;;;;;22.40;57.50;;;;;;10450700;27;929;-70
2023/06/09 23:40:45;;;;;;;;;;;22.40;57.50;;;;;;10450559;27;850;-70
2023/06/09 23:45:40;;;;;;;;;;;22.40;57.40;;;;;;10450956;27;764;-70
2023/06/09 23:50:35;;;;;;;;;;;22.40;57.40;;;;;;10450273;27;1972;-70
2023/06/09 23:55:31;;;;;;;;;;;22.40;57.50;;;;;;10449557;27;801;-70
